createdAt,value
2022-10-04T00:02:00.313Z,1.70
2022-10-04T00:04:34.585Z,1.90
2022-10-04T00:07:09.267Z,2.30
2022-10-04T00:09:45.473Z,2.30
2022-10-04T00:12:24.410Z,2.28
2022-10-04T00:14:57.094Z,2.60
2022-10-04T00:17:31.122Z,2.20
2022-10-04T00:22:36.380Z,2.55
2022-10-04T00:25:20.298Z,2.20
2022-10-04T00:28:25.880Z,2.45
2022-10-04T00:31:14.599Z,2.20
2022-10-04T00:33:45.029Z,2.30
2022-10-04T00:36:46.222Z,2.40
2022-10-04T00:39:44.402Z,2.53
2022-10-04T00:42:40.221Z,2.35
2022-10-04T00:45:26.957Z,2.78
2022-10-04T00:48:13.495Z,2.13
2022-10-04T00:50:45.649Z,2.70
2022-10-04T00:53:27.732Z,2.60
2022-10-04T00:56:02.892Z,2.60
2022-10-04T00:58:37.667Z,2.70
2022-10-04T01:01:07.750Z,2.42
2022-10-04T01:03:42.285Z,2.70
2022-10-04T01:06:13.920Z,2.40
2022-10-04T01:08:50.518Z,2.67
2022-10-04T01:11:23.086Z,2.50
2022-10-04T01:14:00.783Z,2.60
2022-10-04T01:16:37.688Z,2.50
2022-10-04T01:22:13.602Z,2.60
2022-10-04T01:24:51.192Z,2.45
2022-10-04T01:27:38.004Z,2.08
2022-10-04T01:30:11.001Z,2.28
2022-10-04T01:32:41.451Z,2.28
2022-10-04T01:35:19.979Z,2.00
2022-10-04T01:37:55.337Z,2.30
2022-10-04T01:40:26.780Z,2.38
2022-10-04T01:43:14.238Z,2.20
2022-10-04T01:45:48.629Z,2.22
2022-10-04T01:48:23.216Z,2.47
2022-10-04T01:50:58.982Z,2.50
2022-10-04T01:53:32.738Z,2.30
2022-10-04T01:56:12.892Z,2.10
2022-10-04T01:58:45.889Z,1.83
2022-10-04T02:04:16.278Z,2.28
2022-10-04T02:06:53.688Z,2.50
2022-10-04T02:09:28.226Z,2.25
2022-10-04T02:12:04.792Z,2.47
2022-10-04T02:14:40.188Z,2.13
2022-10-04T02:17:10.637Z,2.65
2022-10-04T02:19:44.608Z,2.58
2022-10-04T02:22:15.083Z,2.88
2022-10-04T02:24:46.413Z,2.95
2022-10-04T02:27:18.006Z,3.10
2022-10-04T02:29:47.216Z,2.15
2022-10-04T02:32:29.777Z,2.90
2022-10-04T02:34:59.933Z,3.28
2022-10-04T02:37:30.633Z,2.42
2022-10-04T02:40:14.401Z,3.65
2022-10-04T02:42:56.818Z,2.95
2022-10-04T02:45:34.860Z,3.15
2022-10-04T02:48:14.468Z,2.97
2022-10-04T02:50:50.333Z,3.10
2022-10-04T02:53:32.032Z,3.05
2022-10-04T02:56:03.587Z,2.63
2022-10-04T02:58:39.390Z,2.53
2022-10-04T03:01:09.219Z,2.65
2022-10-04T03:03:41.145Z,3.20
2022-10-04T03:06:13.134Z,3.00
2022-10-04T03:08:48.795Z,2.60
2022-10-04T03:11:20.547Z,3.47
2022-10-04T03:13:54.370Z,2.90
2022-10-04T03:16:24.595Z,2.90
2022-10-04T03:18:58.443Z,3.17
2022-10-04T03:21:28.990Z,3.22
2022-10-04T03:24:00.598Z,2.92
2022-10-04T03:26:34.508Z,2.70
2022-10-04T03:29:09.889Z,3.05
2022-10-04T03:31:43.805Z,3.42
2022-10-04T03:34:17.550Z,2.72
2022-10-04T03:36:49.440Z,3.08
2022-10-04T03:42:07.277Z,2.88
2022-10-04T03:44:39.297Z,2.85
2022-10-04T03:47:11.134Z,3.35
2022-10-04T03:49:51.870Z,3.20
2022-10-04T03:52:26.421Z,3.00
2022-10-04T03:55:09.678Z,3.20
2022-10-04T03:57:40.147Z,3.40
2022-10-04T04:00:19.997Z,3.10
2022-10-04T04:02:54.679Z,3.45
2022-10-04T04:08:16.024Z,3.53
2022-10-04T04:10:49.698Z,3.70
2022-10-04T04:13:25.766Z,3.25
2022-10-04T04:16:05.578Z,3.47
2022-10-04T04:18:38.449Z,3.50
2022-10-04T04:21:08.950Z,3.50
2022-10-04T04:23:48.370Z,4.15
2022-10-04T04:26:25.221Z,3.80
2022-10-04T04:28:58.366Z,3.70
2022-10-04T04:31:37.709Z,3.80
2022-10-04T04:34:17.284Z,3.40
2022-10-04T04:36:46.767Z,3.75
2022-10-04T04:39:33.518Z,4.18
2022-10-04T04:42:16.270Z,3.80
2022-10-04T04:44:55.823Z,3.60
2022-10-04T04:47:33.440Z,3.75
2022-10-04T04:50:08.291Z,3.35
2022-10-04T04:52:39.262Z,3.50
2022-10-04T04:55:17.677Z,3.10
2022-10-04T04:57:47.310Z,3.38
2022-10-04T05:00:21.361Z,3.80
2022-10-04T05:02:58.776Z,3.50
2022-10-04T05:05:39.424Z,3.72
2022-10-04T05:08:16.531Z,3.63
2022-10-04T05:10:56.004Z,3.42
2022-10-04T05:13:40.880Z,3.35
2022-10-04T05:16:16.310Z,3.20
2022-10-04T05:18:58.998Z,2.80
2022-10-04T05:21:32.271Z,2.60
2022-10-04T05:24:12.242Z,3.60
2022-10-04T05:26:44.626Z,2.75
2022-10-04T05:29:20.374Z,2.75
2022-10-04T05:31:55.803Z,2.40
2022-10-04T05:34:40.179Z,2.70
2022-10-04T05:37:25.905Z,2.75
2022-10-04T05:40:04.780Z,2.50
2022-10-04T05:42:42.842Z,2.30
2022-10-04T05:45:20.339Z,2.47
2022-10-04T05:47:53.073Z,2.70
2022-10-04T05:50:33.376Z,2.42
2022-10-04T05:53:24.616Z,2.40
2022-10-04T05:56:22.649Z,2.70
2022-10-04T05:59:06.783Z,2.33
2022-10-04T06:01:45.094Z,2.38
2022-10-04T06:04:33.032Z,2.30
2022-10-04T06:07:16.810Z,2.50
2022-10-04T06:09:58.679Z,2.47
2022-10-04T06:15:25.235Z,2.63
2022-10-04T06:18:17.117Z,2.45
2022-10-04T06:21:20.882Z,2.50
2022-10-04T06:23:58.804Z,2.40
2022-10-04T06:26:32.117Z,2.35
2022-10-04T06:29:05.102Z,2.47
2022-10-04T06:32:03.842Z,2.40
2022-10-04T06:34:52.033Z,2.38
2022-10-04T06:37:35.773Z,2.50
2022-10-04T06:40:33.016Z,2.20
2022-10-04T06:43:21.715Z,2.40
2022-10-04T06:46:07.574Z,2.10
2022-10-04T06:48:56.127Z,1.90
2022-10-04T06:51:42.412Z,2.20
2022-10-04T06:54:27.526Z,2.15
2022-10-04T06:57:25.578Z,2.28
2022-10-04T07:00:10.104Z,2.00
2022-10-04T07:02:44.948Z,1.77
2022-10-04T07:05:21.802Z,2.28
2022-10-04T07:08:06.267Z,2.05
2022-10-04T07:10:49.533Z,2.00
2022-10-04T07:13:48.399Z,2.00
2022-10-04T07:16:31.776Z,1.90
2022-10-04T07:19:10.600Z,2.20
2022-10-04T07:21:47.075Z,2.17
2022-10-04T07:24:26.836Z,1.70
2022-10-04T07:26:57.731Z,1.90
2022-10-04T07:29:31.415Z,2.13
2022-10-04T07:32:19.345Z,2.00
2022-10-04T07:34:54.900Z,1.60
2022-10-04T07:37:32.912Z,1.52
2022-10-04T07:40:06.208Z,1.23
2022-10-04T07:42:51.562Z,1.70
2022-10-04T07:45:30.044Z,1.73
2022-10-04T07:48:11.999Z,1.88
2022-10-04T07:50:48.094Z,1.83
2022-10-04T07:53:20.106Z,1.77
2022-10-04T07:55:57.213Z,1.60
2022-10-04T07:58:46.854Z,1.60
2022-10-04T08:01:30.421Z,2.03
2022-10-04T08:04:17.994Z,1.55
2022-10-04T08:06:58.556Z,1.60
2022-10-04T08:09:48.960Z,2.00
2022-10-04T08:12:26.775Z,1.83
2022-10-04T08:14:58.633Z,1.75
2022-10-04T08:17:49.202Z,1.80
2022-10-04T08:20:38.608Z,1.63
2022-10-04T08:23:41.303Z,1.60
2022-10-04T08:26:25.075Z,1.73
2022-10-04T08:29:18.615Z,1.33
2022-10-04T08:32:05.585Z,1.60
2022-10-04T08:34:56.369Z,1.70
2022-10-04T08:37:35.809Z,1.50
2022-10-04T08:40:36.168Z,1.60
2022-10-04T08:43:33.673Z,1.70
2022-10-04T08:46:34.629Z,1.40
2022-10-04T08:49:23.781Z,1.40
2022-10-04T08:52:27.953Z,1.45
2022-10-04T08:55:34.604Z,1.42
2022-10-04T08:58:15.533Z,1.40
2022-10-04T09:01:04.212Z,1.47
2022-10-04T09:04:13.405Z,1.60
2022-10-04T09:06:49.297Z,1.70
2022-10-04T09:09:52.715Z,1.73
2022-10-04T09:12:51.386Z,1.65
2022-10-04T09:15:37.006Z,1.67
2022-10-04T09:18:23.403Z,1.40
2022-10-04T09:21:11.358Z,1.45
2022-10-04T09:24:14.347Z,1.45
2022-10-04T09:26:47.470Z,1.50
2022-10-04T09:29:37.737Z,1.60
2022-10-04T09:32:26.955Z,1.67
2022-10-04T09:35:34.901Z,1.63
2022-10-04T09:38:40.207Z,1.83
2022-10-04T09:41:52.590Z,1.60
2022-10-04T09:44:46.621Z,1.35
2022-10-04T09:47:37.537Z,1.85
2022-10-04T09:50:54.346Z,1.55
2022-10-04T09:53:50.891Z,1.50
2022-10-04T09:56:50.395Z,1.40
2022-10-04T09:59:39.079Z,1.52
2022-10-04T10:02:42.540Z,1.20
2022-10-04T10:05:46.201Z,1.33
2022-10-04T10:08:28.431Z,1.40
2022-10-04T10:11:21.775Z,1.52
2022-10-04T10:14:31.101Z,1.60
2022-10-04T10:17:09.563Z,1.33
2022-10-04T10:20:05.585Z,1.80
2022-10-04T10:26:04.521Z,1.65
2022-10-04T10:28:54.006Z,1.42
2022-10-04T10:31:47.023Z,1.55
2022-10-04T10:34:43.058Z,1.45
2022-10-04T10:37:18.449Z,1.38
2022-10-04T10:40:11.245Z,1.70
2022-10-04T10:43:06.138Z,2.08
2022-10-04T10:45:49.351Z,1.40
2022-10-04T10:48:29.768Z,1.70
2022-10-04T10:51:16.840Z,1.48
2022-10-04T10:54:29.877Z,1.38
2022-10-04T10:57:07.992Z,1.70
2022-10-04T11:00:14.723Z,2.22
2022-10-04T11:03:13.893Z,1.88
2022-10-04T11:06:09.163Z,1.80
2022-10-04T11:09:27.991Z,1.83
2022-10-04T11:12:19.164Z,1.55
2022-10-04T11:15:16.008Z,1.25
2022-10-04T11:18:19.101Z,1.10
2022-10-04T11:21:15.058Z,1.23
2022-10-04T11:24:14.848Z,1.27
2022-10-04T11:27:13.403Z,1.38
2022-10-04T11:30:11.176Z,1.90
2022-10-04T11:33:33.681Z,1.83
2022-10-04T11:39:23.679Z,1.20
2022-10-04T11:42:07.322Z,0.90
2022-10-04T11:44:59.899Z,0.80
2022-10-04T11:47:43.106Z,0.77
2022-10-04T11:50:38.465Z,0.60
2022-10-04T11:53:36.814Z,0.70
2022-10-04T11:56:38.729Z,0.85
2022-10-04T11:59:26.968Z,0.40
2022-10-04T12:05:23.038Z,0.80
2022-10-04T12:08:16.835Z,0.80
2022-10-04T12:11:01.695Z,0.60
2022-10-04T12:14:03.253Z,0.88
2022-10-04T12:16:58.671Z,1.00
2022-10-04T12:19:58.312Z,1.20
2022-10-04T12:22:54.921Z,0.90
2022-10-04T12:26:10.155Z,0.80
2022-10-04T12:29:17.275Z,0.77
2022-10-04T12:31:53.180Z,0.93
2022-10-04T12:34:31.522Z,0.82
2022-10-04T12:37:18.346Z,1.00
2022-10-04T12:40:08.671Z,0.88
2022-10-04T12:42:50.233Z,1.02
2022-10-04T12:45:34.157Z,1.30
2022-10-04T12:48:29.084Z,1.20
2022-10-04T12:56:47.911Z,0.90
2022-10-04T12:59:34.926Z,0.80
2022-10-04T13:02:25.689Z,0.68
2022-10-04T13:05:07.332Z,0.90
2022-10-04T13:07:50.923Z,0.70
2022-10-04T13:10:39.578Z,0.80
2022-10-04T13:13:49.082Z,0.75
2022-10-04T13:19:24.339Z,0.82
2022-10-04T13:22:08.036Z,0.70
2022-10-04T13:24:54.808Z,0.80
2022-10-04T13:27:33.019Z,0.77
2022-10-04T13:30:22.985Z,0.70
2022-10-04T13:33:07.159Z,0.70
2022-10-04T13:35:58.590Z,0.70
2022-10-04T13:38:53.831Z,0.38
2022-10-04T13:41:39.690Z,0.80
2022-10-04T13:44:38.088Z,0.65
2022-10-04T13:47:38.910Z,0.90
2022-10-04T13:50:28.159Z,0.65
2022-10-04T13:53:23.654Z,1.35
2022-10-04T13:56:12.118Z,0.80
2022-10-04T13:58:50.086Z,0.80
2022-10-04T14:01:48.933Z,0.88
2022-10-04T14:04:57.087Z,0.80
2022-10-04T14:07:50.695Z,0.95
2022-10-04T14:10:38.751Z,0.82
2022-10-04T14:13:31.936Z,0.90
2022-10-04T14:16:33.567Z,0.90
2022-10-04T14:19:41.519Z,1.10
2022-10-04T14:22:46.334Z,0.90
2022-10-04T14:25:46.515Z,0.98
2022-10-04T14:28:57.838Z,0.95
2022-10-04T14:31:57.163Z,0.90
2022-10-04T14:34:54.939Z,1.10
2022-10-04T14:37:53.476Z,1.05
2022-10-04T14:40:54.300Z,1.10
2022-10-04T14:44:14.366Z,1.23
2022-10-04T14:47:00.103Z,1.23
2022-10-04T14:49:45.660Z,1.20
2022-10-04T14:52:34.599Z,1.10
2022-10-04T14:55:20.662Z,1.52
2022-10-04T14:58:19.789Z,1.00
2022-10-04T15:01:20.148Z,1.00
2022-10-04T15:04:13.342Z,1.05
2022-10-04T15:06:50.318Z,1.35
2022-10-04T15:09:52.382Z,1.15
2022-10-04T15:13:10.496Z,1.17
2022-10-04T15:16:03.519Z,1.45
2022-10-04T15:21:22.002Z,1.60
2022-10-04T15:23:56.785Z,1.65
2022-10-04T15:27:08.717Z,1.90
2022-10-04T15:29:48.067Z,2.15
2022-10-04T15:32:35.882Z,1.85
2022-10-04T15:35:25.951Z,1.52
2022-10-04T15:38:00.459Z,1.98
2022-10-04T15:40:50.502Z,1.70
2022-10-04T15:43:30.005Z,1.50
2022-10-04T15:46:35.480Z,1.55
2022-10-04T15:49:41.488Z,1.77
2022-10-04T15:52:21.084Z,2.28
2022-10-04T15:55:20.251Z,2.50
2022-10-04T15:58:19.475Z,2.53
2022-10-04T16:01:06.943Z,2.83
2022-10-04T16:03:45.716Z,2.60
2022-10-04T16:06:24.685Z,3.08
2022-10-04T16:09:16.306Z,3.30
2022-10-04T16:12:02.319Z,3.00
2022-10-04T16:14:57.617Z,3.10
2022-10-04T16:17:50.085Z,3.10
2022-10-04T16:20:57.437Z,2.80
2022-10-04T16:23:34.009Z,2.95
2022-10-04T16:26:05.906Z,3.00
2022-10-04T16:29:04.173Z,2.65
2022-10-04T16:32:02.732Z,3.00
2022-10-04T16:34:47.707Z,3.22
2022-10-04T16:37:30.221Z,3.03
2022-10-04T16:40:10.974Z,3.00
2022-10-04T16:42:54.634Z,3.10
2022-10-04T16:45:48.371Z,3.13
2022-10-04T16:48:31.189Z,2.67
2022-10-04T16:51:32.208Z,2.15
2022-10-04T16:54:10.299Z,2.10
2022-10-04T16:57:16.562Z,2.30
2022-10-04T16:59:50.901Z,1.90
2022-10-04T17:02:48.797Z,2.13
2022-10-04T17:05:42.515Z,2.25
2022-10-04T17:08:27.532Z,1.95
2022-10-04T17:11:33.365Z,1.77
2022-10-04T17:14:20.614Z,1.83
2022-10-04T17:16:57.379Z,1.95
2022-10-04T17:19:39.123Z,1.80
2022-10-04T17:22:23.280Z,1.80
2022-10-04T17:25:03.597Z,1.90
2022-10-04T17:27:48.822Z,2.38
2022-10-04T17:30:28.600Z,2.05
2022-10-04T17:33:14.055Z,2.42
2022-10-04T17:36:03.193Z,2.20
2022-10-04T17:38:43.460Z,2.00
2022-10-04T17:41:26.445Z,2.08
2022-10-04T17:44:33.801Z,1.52
2022-10-04T17:47:14.553Z,1.73
2022-10-04T17:50:14.651Z,1.90
2022-10-04T17:53:06.269Z,2.22
2022-10-04T17:55:46.100Z,1.60
2022-10-04T17:58:24.814Z,1.30
2022-10-04T18:01:01.155Z,1.55
2022-10-04T18:03:41.818Z,1.73
2022-10-04T18:06:26.560Z,1.48
2022-10-04T18:09:00.229Z,1.20
2022-10-04T18:11:36.416Z,1.35
2022-10-04T18:14:12.403Z,1.10
2022-10-04T18:16:54.093Z,1.30
2022-10-04T18:19:47.168Z,1.48
2022-10-04T18:22:18.944Z,1.20
2022-10-04T18:24:50.099Z,1.20
2022-10-04T18:27:22.424Z,1.27
2022-10-04T18:30:14.984Z,1.60
2022-10-04T18:32:48.912Z,1.67
2022-10-04T18:35:26.522Z,2.00
2022-10-04T18:38:03.378Z,2.20
2022-10-04T18:40:36.484Z,1.77
2022-10-04T18:43:26.880Z,1.50
2022-10-04T18:46:04.647Z,1.50
2022-10-04T18:48:53.632Z,1.95
2022-10-04T18:51:30.477Z,1.70
2022-10-04T18:54:21.120Z,1.30
2022-10-04T18:57:04.965Z,1.58
2022-10-04T18:59:57.475Z,1.67
2022-10-04T19:02:40.712Z,1.77
2022-10-04T19:05:20.707Z,1.70
2022-10-04T19:08:11.452Z,1.60
2022-10-04T19:10:44.708Z,2.00
2022-10-04T19:13:35.371Z,1.80
2022-10-04T19:16:34.697Z,1.65
2022-10-04T19:19:33.002Z,1.83
2022-10-04T19:22:15.043Z,2.00
2022-10-04T19:27:28.649Z,1.60
2022-10-04T19:30:12.260Z,2.00
2022-10-04T19:32:56.487Z,1.70
2022-10-04T19:35:50.715Z,1.67
2022-10-04T19:38:35.722Z,1.75
2022-10-04T19:41:14.936Z,1.50
2022-10-04T19:43:53.963Z,1.50
2022-10-04T19:46:42.603Z,1.40
2022-10-04T19:49:26.926Z,1.38
2022-10-04T19:52:15.072Z,1.60
2022-10-04T19:54:44.253Z,1.45
2022-10-04T19:57:16.683Z,1.52
2022-10-04T19:59:48.156Z,1.50
2022-10-04T20:02:23.899Z,2.00
2022-10-04T20:04:53.566Z,1.40
2022-10-04T20:07:27.008Z,1.45
2022-10-04T20:10:00.132Z,1.20
2022-10-04T20:12:44.926Z,1.60
2022-10-04T20:15:46.000Z,1.60
2022-10-04T20:18:44.826Z,1.50
2022-10-04T20:21:30.639Z,1.52
2022-10-04T20:24:01.228Z,1.38
2022-10-04T20:26:56.333Z,1.60
2022-10-04T20:30:05.997Z,2.15
2022-10-04T20:33:01.806Z,1.73
2022-10-04T20:36:08.719Z,1.52
2022-10-04T20:38:52.954Z,1.80
2022-10-04T20:42:13.734Z,1.55
2022-10-04T20:44:53.774Z,1.73
2022-10-04T20:47:51.290Z,1.70
2022-10-04T20:50:38.434Z,1.80
2022-10-04T20:53:17.056Z,1.23
2022-10-04T20:55:47.578Z,1.67
2022-10-04T20:58:28.109Z,1.30
2022-10-04T21:01:02.283Z,2.08
2022-10-04T21:03:33.656Z,1.60
2022-10-04T21:06:08.031Z,2.22
2022-10-04T21:11:20.997Z,1.90
2022-10-04T21:13:53.807Z,1.33
2022-10-04T21:16:46.377Z,1.58
2022-10-04T21:19:47.667Z,1.55
2022-10-04T21:22:35.470Z,1.63
2022-10-04T21:25:07.699Z,2.08
2022-10-04T21:27:38.225Z,1.65
2022-10-04T21:30:14.554Z,1.92
2022-10-04T21:32:49.046Z,1.83
2022-10-04T21:35:22.955Z,1.80
2022-10-04T21:37:52.395Z,1.42
2022-10-04T21:40:21.793Z,1.60
2022-10-04T21:42:51.169Z,1.30
2022-10-04T21:45:20.179Z,1.63
2022-10-04T21:47:52.250Z,1.30
2022-10-04T21:50:23.263Z,1.20
2022-10-04T21:52:52.552Z,1.23
2022-10-04T21:55:26.729Z,1.42
2022-10-04T21:57:55.960Z,2.17
2022-10-04T22:00:25.256Z,1.38
2022-10-04T22:02:54.558Z,1.08
2022-10-04T22:05:30.932Z,1.17
2022-10-04T22:08:00.231Z,1.08
2022-10-04T22:10:29.499Z,1.10
2022-10-04T22:12:58.782Z,1.00
2022-10-04T22:15:29.766Z,2.40
2022-10-04T22:18:05.573Z,1.30
2022-10-04T22:20:37.307Z,1.10
2022-10-04T22:23:18.303Z,1.13
2022-10-04T22:25:47.801Z,1.23
2022-10-04T22:28:22.711Z,1.00
2022-10-04T22:30:55.262Z,1.10
2022-10-04T22:33:34.429Z,1.00
2022-10-04T22:36:14.721Z,1.02
2022-10-04T22:38:46.656Z,1.10
2022-10-04T22:41:19.633Z,1.02
2022-10-04T22:43:55.808Z,0.80
2022-10-04T22:46:30.005Z,1.10
2022-10-04T22:48:59.266Z,1.10
2022-10-04T22:51:31.953Z,1.17
2022-10-04T22:54:01.156Z,0.98
2022-10-04T22:56:35.360Z,1.08
2022-10-04T22:59:04.578Z,1.27
2022-10-04T23:01:33.897Z,1.27
2022-10-04T23:04:03.025Z,1.17
2022-10-04T23:06:34.572Z,1.20
2022-10-04T23:09:10.352Z,1.55
2022-10-04T23:11:39.505Z,1.30
2022-10-04T23:14:08.589Z,1.35
2022-10-04T23:16:44.491Z,1.48
2022-10-04T23:19:18.270Z,1.40
2022-10-04T23:21:52.069Z,1.13
2022-10-04T23:24:25.147Z,1.40
2022-10-04T23:26:57.483Z,1.25
2022-10-04T23:29:34.522Z,1.30
2022-10-04T23:32:11.630Z,1.33
2022-10-04T23:34:43.364Z,1.13
2022-10-04T23:37:24.817Z,1.33
2022-10-04T23:39:59.998Z,1.60
2022-10-04T23:42:33.053Z,1.10
2022-10-04T23:45:03.344Z,1.25
2022-10-04T23:47:36.497Z,1.30
2022-10-04T23:50:19.333Z,1.15
2022-10-04T23:52:51.696Z,1.35
2022-10-04T23:55:23.988Z,1.27
